Time;durP1;ratioP1;P1;durP2;ratioP2;P2;SDS_P1;SDS_P2;PMS_P1;PMS_P2;Temp;Humidity;BMP_temperature;BMP_pressure;BME280_temperature;BME280_humidity;BME280_pressure;Samples;Min_cycle;Max_cycle;Signal;HPM_P1;HPM_P2
2023/11/15 00:00:11;;;;;;;18.48;3.55;;;;;;;14.17;69.33;100718.22;4993200;28;109130;-70
2023/11/15 00:02:39;;;;;;;14.50;3.30;;;;;;;14.17;69.24;100729.72;4990655;28;123252;-71
2023/11/15 00:05:07;;;;;;;15.00;3.30;;;;;;;14.18;69.27;100731.44;4995189;28;123968;-70
2023/11/15 00:07:34;;;;;;;20.83;3.85;;;;;;;14.19;69.27;100725.16;5009440;28;109510;-70
2023/11/15 00:10:03;;;;;;;19.40;3.15;;;;;;;14.20;69.30;100732.19;4997302;28;107853;-70
2023/11/15 00:12:32;;;;;;;20.63;3.83;;;;;;;14.19;69.28;100733.13;5006503;28;124659;-70
2023/11/15 00:14:59;;;;;;;24.92;3.75;;;;;;;14.19;69.19;100738.47;5010504;28;122350;-70
2023/11/15 00:17:30;;;;;;;18.75;3.30;;;;;;;14.19;69.39;100733.13;5010464;28;109061;-71
2023/11/15 00:19:59;;;;;;;15.93;3.42;;;;;;;14.19;69.16;100741.13;4995566;28;107903;-70
2023/11/15 00:22:26;;;;;;;16.40;3.25;;;;;;;14.21;69.27;100746.38;5009662;28;124853;-70
2023/11/15 00:24:53;;;;;;;19.08;3.28;;;;;;;14.20;69.11;100745.50;4991694;28;124355;-70
2023/11/15 00:27:21;;;;;;;17.63;2.88;;;;;;;14.18;69.06;100742.09;4991225;28;110044;-70
2023/11/15 00:29:49;;;;;;;19.08;3.58;;;;;;;14.18;69.08;100746.53;4992730;28;109093;-70
2023/11/15 00:32:19;;;;;;;16.40;3.17;;;;;;;14.17;69.15;100751.03;4973315;28;123014;-71
2023/11/15 00:34:47;;;;;;;14.40;3.17;;;;;;;14.17;69.18;100756.34;5007423;28;123940;-70
2023/11/15 00:37:15;;;;;;;16.50;3.28;;;;;;;14.17;69.14;100755.50;5012607;28;110106;-71
2023/11/15 00:39:43;;;;;;;14.57;3.15;;;;;;;14.15;69.23;100747.59;4988937;28;108572;-70
2023/11/15 00:42:11;;;;;;;16.77;3.30;;;;;;;14.17;69.16;100756.34;4995414;28;124140;-71
2023/11/15 00:44:38;;;;;;;12.15;3.15;;;;;;;14.15;69.19;100752.94;4990289;28;124787;-70
2023/11/15 00:47:06;;;;;;;16.35;3.20;;;;;;;14.15;69.11;100758.25;4984523;28;109548;-71
2023/11/15 00:49:33;;;;;;;16.98;3.25;;;;;;;14.14;69.12;100761.84;4995825;28;108417;-70
2023/11/15 00:52:01;;;;;;;19.85;3.03;;;;;;;14.14;69.11;100761.84;4997186;28;123032;-71
2023/11/15 00:54:28;;;;;;;14.18;3.35;;;;;;;14.13;68.96;100760.16;5015881;28;124021;-71
2023/11/15 00:56:55;;;;;;;14.05;3.47;;;;;;;14.14;69.28;100772.50;5009958;28;109419;-70
2023/11/15 00:59:26;;;;;;;15.68;3.45;;;;;;;14.13;69.19;100770.81;5011162;28;109339;-70
2023/11/15 01:01:58;;;;;;;14.70;3.03;;;;;;;14.14;69.20;100772.50;4996480;28;123805;-71
2023/11/15 01:04:26;;;;;;;19.30;3.22;;;;;;;14.14;69.18;100783.16;4996204;28;122772;-70
2023/11/15 01:06:53;;;;;;;19.02;3.38;;;;;;;14.16;69.33;100797.25;4995321;28;108227;-70
2023/11/15 01:09:23;;;;;;;17.88;3.20;;;;;;;14.17;69.21;100804.28;4995066;28;108422;-71
2023/11/15 01:11:52;;;;;;;18.58;2.60;;;;;;;14.17;69.19;100809.63;5002414;28;124493;-70
2023/11/15 01:14:20;;;;;;;14.73;2.83;;;;;;;14.18;69.29;100808.69;4994999;28;123385;-70
2023/11/15 01:16:48;;;;;;;17.02;2.88;;;;;;;14.19;69.38;100814.88;4993663;28;110132;-70
2023/11/15 01:19:15;;;;;;;11.93;3.03;;;;;;;14.19;69.26;100810.38;4993719;28;108963;-70
2023/11/15 01:21:42;;;;;;;11.85;2.53;;;;;;;14.20;69.36;100804.13;4995749;28;123179;-70
2023/11/15 01:24:10;;;;;;;15.55;2.70;;;;;;;14.21;69.14;100815.63;5011642;28;125229;-70
2023/11/15 01:26:37;;;;;;;16.35;2.30;;;;;;;14.21;69.07;100821.78;4996918;28;108610;-70
2023/11/15 01:29:04;;;;;;;15.88;2.38;;;;;;;14.20;69.12;100830.75;5013755;28;109067;-71
2023/11/15 01:31:32;;;;;;;12.75;2.70;;;;;;;14.23;69.11;100836.84;4999627;28;124817;-70
2023/11/15 01:33:59;;;;;;;16.42;2.75;;;;;;;14.23;69.05;100831.50;5004423;28;125531;-70
2023/11/15 01:36:27;;;;;;;11.65;2.30;;;;;;;14.23;69.03;100834.19;4988280;28;108436;-70
2023/11/15 01:38:55;;;;;;;17.52;2.78;;;;;;;14.24;69.11;100838.53;4994614;28;108202;-70
2023/11/15 01:41:23;;;;;;;11.88;2.78;;;;;;;14.24;69.04;100843.88;4991429;28;124271;-70
2023/11/15 01:43:51;;;;;;;13.55;2.65;;;;;;;14.25;68.92;100842.94;4989992;28;122671;-70
2023/11/15 01:46:19;;;;;;;13.50;2.80;;;;;;;14.27;69.23;100851.69;5008875;28;109636;-70
2023/11/15 01:48:47;;;;;;;12.07;2.33;;;;;;;14.25;68.97;100865.09;5004970;28;109315;-70
2023/11/15 01:51:14;;;;;;;16.02;2.58;;;;;;;14.27;69.19;100862.34;4987403;28;124922;-70
2023/11/15 01:53:42;;;;;;;14.70;2.53;;;;;;;14.29;68.97;100865.78;5007181;28;124094;-70
2023/11/15 01:56:10;;;;;;;16.30;3.00;;;;;;;14.27;68.99;100873.00;4995837;28;108337;-71
2023/11/15 01:58:37;;;;;;;17.05;2.95;;;;;;;14.28;68.93;100874.69;4996995;28;108298;-70
2023/11/15 02:01:05;;;;;;;14.45;2.78;;;;;;;14.28;68.89;100874.69;5007004;28;124200;-70
2023/11/15 02:03:33;;;;;;;17.10;2.55;;;;;;;14.29;68.99;100879.09;4991372;28;124887;-69
2023/11/15 02:06:00;;;;;;;15.25;2.70;;;;;;;14.29;69.00;100881.75;4993135;28;110588;-70
2023/11/15 02:08:28;;;;;;;11.70;2.25;;;;;;;14.29;69.13;100887.09;5005374;28;110320;-69
2023/11/15 02:10:56;;;;;;;11.77;2.55;;;;;;;14.29;68.88;100892.41;4999852;28;124028;-69
2023/11/15 02:13:25;;;;;;;15.02;2.70;;;;;;;14.30;69.08;100894.13;4983327;28;123150;-69
2023/11/15 02:15:56;;;;;;;15.98;2.70;;;;;;;14.31;69.00;100890.50;5009553;28;109535;-70
2023/11/15 02:18:28;;;;;;;14.45;2.80;;;;;;;14.30;68.98;100904.78;4992441;28;108076;-70
2023/11/15 02:20:57;;;;;;;16.02;2.60;;;;;;;14.31;68.93;100895.84;4992647;28;123196;-69
2023/11/15 02:23:28;;;;;;;14.50;2.75;;;;;;;14.30;68.92;100910.97;4994577;28;124090;-69
2023/11/15 02:25:56;;;;;;;17.67;2.30;;;;;;;14.31;68.81;100906.50;5004063;28;109922;-70
2023/11/15 02:28:23;;;;;;;15.15;2.70;;;;;;;14.30;68.90;100910.13;4992227;28;107911;-70
2023/11/15 02:30:51;;;;;;;14.45;2.45;;;;;;;14.30;68.91;100915.47;4982717;28;123682;-70
2023/11/15 02:33:18;;;;;;;14.73;2.55;;;;;;;14.30;68.76;100918.13;5006601;28;124053;-69
2023/11/15 02:35:46;;;;;;;14.77;2.85;;;;;;;14.30;68.83;100929.63;5007766;28;109732;-69
2023/11/15 02:38:14;;;;;;;17.00;2.70;;;;;;;14.30;68.83;100923.44;4986296;28;107291;-70
2023/11/15 02:40:42;;;;;;;15.48;2.58;;;;;;;14.30;68.73;100931.44;4994272;28;124122;-70
2023/11/15 02:43:14;;;;;;;18.15;2.88;;;;;;;14.29;68.50;100929.72;4994578;28;123168;-70
2023/11/15 02:45:42;;;;;;;10.52;2.10;;;;;;;14.30;68.51;100932.28;4979452;28;108215;-69
2023/11/15 02:48:09;;;;;;;17.52;2.92;;;;;;;14.31;68.68;100935.81;5009275;28;109371;-69
2023/11/15 02:50:37;;;;;;;18.73;2.55;;;;;;;14.31;68.68;100933.97;4993931;28;123107;-69
2023/11/15 02:53:05;;;;;;;19.33;3.05;;;;;;;14.31;68.66;100933.13;4977613;28;123451;-69
2023/11/15 02:55:33;;;;;;;16.35;2.72;;;;;;;14.31;68.68;100927.81;4995203;28;109394;-69
2023/11/15 02:58:00;;;;;;;20.52;2.67;;;;;;;14.31;68.67;100935.81;5011396;28;109701;-69
2023/11/15 03:00:29;;;;;;;17.95;3.08;;;;;;;14.30;68.61;100945.63;4995066;28;123191;-69
2023/11/15 03:02:57;;;;;;;14.05;2.63;;;;;;;14.31;68.64;100933.13;4993991;28;123991;-69
2023/11/15 03:05:24;;;;;;;13.70;2.40;;;;;;;14.30;68.69;100942.94;4995186;28;108358;-69
2023/11/15 03:07:52;;;;;;;9.73;2.15;;;;;;;14.31;68.79;100949.97;5013199;28;109249;-69
2023/11/15 03:10:19;;;;;;;15.98;2.60;;;;;;;14.32;68.64;100951.69;5009584;28;124466;-69
2023/11/15 03:12:46;;;;;;;17.42;2.67;;;;;;;14.33;68.14;100944.56;4975803;28;123376;-69
2023/11/15 03:15:14;;;;;;;15.45;2.60;;;;;;;14.32;68.53;100950.84;4992775;28;108430;-69
2023/11/15 03:17:42;;;;;;;13.70;2.63;;;;;;;14.32;68.50;100945.53;4995352;28;108408;-70
2023/11/15 03:20:10;;;;;;;16.90;2.40;;;;;;;14.31;68.51;100960.63;4995120;28;123286;-69
2023/11/15 03:22:37;;;;;;;13.73;2.17;;;;;;;14.32;68.44;100961.50;4993973;28;124082;-69
2023/11/15 03:25:05;;;;;;;14.75;2.72;;;;;;;14.31;68.39;100954.44;4996788;28;108458;-69
2023/11/15 03:27:32;;;;;;;14.57;2.40;;;;;;;14.31;68.33;100959.78;4993370;28;108018;-70
2023/11/15 03:30:00;;;;;;;17.45;2.30;;;;;;;14.30;68.43;100958.09;4996483;28;123077;-69
2023/11/15 03:32:28;;;;;;;11.60;2.05;;;;;;;14.30;68.48;100968.75;5014864;28;123991;-69
2023/11/15 03:34:56;;;;;;;11.60;2.75;;;;;;;14.30;68.26;100963.41;5006047;28;110189;-69
2023/11/15 03:37:23;;;;;;;15.60;2.70;;;;;;;14.30;68.45;100974.06;5016883;28;108889;-69
2023/11/15 03:39:50;;;;;;;17.90;2.88;;;;;;;14.29;68.41;100972.34;5010738;28;124571;-69
2023/11/15 03:42:18;;;;;;;16.30;2.03;;;;;;;14.28;68.32;100975.94;5006220;28;124629;-68
2023/11/15 03:44:45;;;;;;;12.88;2.05;;;;;;;14.28;68.27;100970.59;5006206;28;110461;-69
2023/11/15 03:47:12;;;;;;;10.65;1.98;;;;;;;14.28;68.24;100976.81;5015374;28;110397;-69
2023/11/15 03:49:40;;;;;;;12.32;2.65;;;;;;;14.29;68.30;100972.34;5009385;28;124217;-69
2023/11/15 03:52:07;;;;;;;13.23;2.13;;;;;;;14.27;68.53;100979.56;5010546;28;123798;-70
2023/11/15 03:54:34;;;;;;;17.67;2.17;;;;;;;14.28;68.32;100991.91;4992156;28;109106;-69
2023/11/15 03:57:04;;;;;;;15.85;2.17;;;;;;;14.27;68.25;100995.53;5013027;28;109228;-69
2023/11/15 03:59:31;;;;;;;12.38;2.25;;;;;;;14.26;68.25;100993.81;5016055;28;125976;-69
2023/11/15 04:01:59;;;;;;;12.27;2.13;;;;;;;14.26;68.34;100988.50;4994173;28;123005;-69
2023/11/15 04:04:26;;;;;;;17.42;2.42;;;;;;;14.26;68.25;100993.81;4998075;28;108164;-70
2023/11/15 04:06:54;;;;;;;19.10;2.88;;;;;;;14.25;68.20;101002.78;5008532;28;108851;-69
2023/11/15 04:09:22;;;;;;;13.73;2.30;;;;;;;14.24;68.17;101003.72;4973688;28;123335;-69
2023/11/15 04:11:51;;;;;;;14.18;3.17;;;;;;;14.24;68.10;101006.38;5009571;28;124041;-69
2023/11/15 04:14:18;;;;;;;16.30;2.53;;;;;;;14.23;68.10;101004.66;5010744;28;109202;-69
2023/11/15 04:16:45;;;;;;;17.75;2.88;;;;;;;14.22;68.16;101009.13;5010033;28;109135;-70
2023/11/15 04:19:15;;;;;;;15.55;2.42;;;;;;;14.21;68.15;101008.25;4994720;28;123263;-69
2023/11/15 04:21:42;;;;;;;17.27;2.70;;;;;;;14.21;68.14;101018.91;4996254;28;125002;-69
2023/11/15 04:24:09;;;;;;;16.30;2.40;;;;;;;14.20;68.31;101022.56;5004675;28;109320;-69
2023/11/15 04:26:37;;;;;;;13.68;2.97;;;;;;;14.20;68.31;101027.88;5009303;28;108988;-69
2023/11/15 04:29:04;;;;;;;17.48;3.20;;;;;;;14.21;68.12;101026.91;4991080;28;123260;-69
2023/11/15 04:31:33;;;;;;;21.17;3.25;;;;;;;14.20;68.37;101022.56;5006594;28;123879;-69
2023/11/15 04:34:02;;;;;;;13.65;3.13;;;;;;;14.20;68.39;101021.66;5000244;28;110661;-70
2023/11/15 04:36:39;;;;;;;12.68;2.88;;;;;;;14.20;68.34;101027.88;5012411;28;110275;-69
2023/11/15 04:39:07;;;;;;;15.57;3.45;;;;;;;14.21;68.21;101034.91;5009823;28;124254;-70
2023/11/15 04:41:38;;;;;;;22.30;3.42;;;;;;;14.22;68.07;101035.75;5003625;28;123983;-70
2023/11/15 04:44:05;;;;;;;18.73;3.75;;;;;;;14.20;68.46;101033.22;5004829;28;109405;-69
2023/11/15 04:46:36;;;;;;;17.90;3.85;;;;;;;14.23;68.23;101036.63;4979992;28;107984;-69
2023/11/15 04:49:07;;;;;;;14.35;3.90;;;;;;;14.23;68.23;101036.63;4992847;28;124118;-69
2023/11/15 04:51:34;;;;;;;20.70;3.90;;;;;;;14.23;68.23;101041.97;5011180;28;124525;-69
2023/11/15 04:54:01;;;;;;;15.27;4.22;;;;;;;14.23;68.34;101041.97;5012309;28;109033;-69
2023/11/15 04:56:29;;;;;;;20.58;4.38;;;;;;;14.22;68.37;101043.75;4997743;28;109503;-71
2023/11/15 04:58:57;;;;;;;21.40;4.55;;;;;;;14.23;68.46;101052.63;4984044;22;123811;-77
2023/11/15 05:01:24;;;;;;;15.50;4.28;;;;;;;14.21;68.39;101053.56;4990523;28;124290;-77
2023/11/15 05:03:52;;;;;;;13.63;3.92;;;;;;;14.21;68.52;101050.88;4996773;28;109245;-78
2023/11/15 05:06:19;;;;;;;13.50;4.13;;;;;;;14.21;68.26;101056.22;4977374;28;109172;-77
2023/11/15 05:08:47;;;;;;;17.92;4.18;;;;;;;14.23;68.25;101057.94;4942256;28;123167;-77
2023/11/15 05:11:14;;;;;;;14.35;3.85;;;;;;;14.20;68.32;101054.53;4948985;28;124659;-77
2023/11/15 05:13:41;;;;;;;15.73;4.35;;;;;;;14.20;68.21;101051.84;4972741;28;109091;-77
2023/11/15 05:16:09;;;;;;;18.35;5.05;;;;;;;14.19;68.20;101055.44;4967573;28;109878;-77
2023/11/15 05:18:36;;;;;;;16.95;4.70;;;;;;;14.19;68.49;101062.59;4953585;28;123692;-77
2023/11/15 05:21:03;;;;;;;14.85;4.43;;;;;;;14.17;68.02;101070.66;4973186;28;124245;-77
2023/11/15 05:23:30;;;;;;;13.45;5.40;;;;;;;14.16;68.10;101074.25;4972506;28;109966;-77
2023/11/15 05:25:58;;;;;;;13.20;5.75;;;;;;;14.13;67.73;101071.78;4955827;28;110195;-77
2023/11/15 05:28:25;;;;;;;13.75;6.63;;;;;;;14.12;68.25;101078.03;4962529;28;125122;-77
2023/11/15 05:30:53;;;;;;;22.33;7.00;;;;;;;14.10;68.13;101074.63;4955773;28;123887;-76
2023/11/15 05:33:20;;;;;;;18.00;6.70;;;;;;;14.10;67.99;101068.44;4951155;28;108716;-77
2023/11/15 05:35:47;;;;;;;16.58;6.32;;;;;;;14.08;67.97;101075.66;4960349;28;110011;-77
2023/11/15 05:38:14;;;;;;;15.88;6.32;;;;;;;14.06;67.98;101089.06;4962821;28;125951;-77
2023/11/15 05:40:43;;;;;;;13.70;5.95;;;;;;;14.05;67.96;101089.97;4951911;28;124158;-77
2023/11/15 05:43:10;;;;;;;10.95;5.60;;;;;;;14.06;67.95;101083.72;4938109;28;108809;-77
2023/11/15 05:45:37;;;;;;;14.13;5.90;;;;;;;14.06;67.96;101093.53;4950763;28;110329;-77
2023/11/15 05:48:05;;;;;;;16.48;6.30;;;;;;;14.04;67.96;101090.94;4933736;28;125795;-77
2023/11/15 05:50:32;;;;;;;13.35;6.57;;;;;;;14.04;67.83;101096.28;4966641;28;124913;-77
2023/11/15 05:53:00;;;;;;;16.10;6.35;;;;;;;14.04;67.56;101096.28;4931265;28;108635;-77
2023/11/15 05:55:28;;;;;;;18.27;7.50;;;;;;;14.03;67.97;101105.19;4948773;28;108104;-78
2023/11/15 05:57:55;;;;;;;17.95;8.25;;;;;;;14.02;67.79;101098.16;4970639;28;124565;-77
2023/11/15 06:00:22;;;;;;;18.58;8.25;;;;;;;14.00;67.87;101102.72;4962086;28;125458;-78
2023/11/15 06:02:51;;;;;;;19.52;8.95;;;;;;;13.98;68.02;101104.59;4968533;28;109816;-77
2023/11/15 06:05:19;;;;;;;22.52;9.25;;;;;;;13.96;68.03;101103.84;4960481;28;108758;-77
2023/11/15 06:07:46;;;;;;;20.73;9.32;;;;;;;13.94;68.19;101106.56;4970550;28;123857;-77
2023/11/15 06:10:14;;;;;;;24.20;9.68;;;;;;;13.93;68.11;101104.00;4936875;28;124623;-77
2023/11/15 06:12:41;;;;;;;19.90;9.82;;;;;;;13.93;68.22;101104.84;4970660;28;110965;-77
2023/11/15 06:15:10;;;;;;;19.23;9.65;;;;;;;13.93;68.36;101109.31;4969479;28;109678;-77
2023/11/15 06:17:39;;;;;;;25.00;9.70;;;;;;;13.94;68.39;101100.41;4952584;28;123377;-77
2023/11/15 06:20:10;;;;;;;26.30;9.27;;;;;;;13.95;68.48;101107.44;4951800;28;123277;-77
2023/11/15 06:22:38;;;;;;;21.20;8.90;;;;;;;13.95;68.38;101123.41;4970829;28;109220;-77
2023/11/15 06:25:07;;;;;;;20.83;8.63;;;;;;;13.94;68.52;101121.69;4950788;28;108669;-77
2023/11/15 06:27:38;;;;;;;19.40;8.85;;;;;;;13.92;68.41;101123.56;4937224;28;123461;-77
2023/11/15 06:30:08;;;;;;;24.35;8.02;;;;;;;13.93;68.51;101114.63;4938944;28;124620;-77
2023/11/15 06:32:36;;;;;;;24.40;8.32;;;;;;;13.93;68.60;101120.81;4950260;28;109401;-77
2023/11/15 06:35:04;;;;;;;15.93;6.72;;;;;;;13.93;68.46;101114.63;4972679;28;108866;-77
2023/11/15 06:37:33;;;;;;;20.60;7.53;;;;;;;13.93;68.39;101126.16;4950673;28;125039;-77
2023/11/15 06:40:07;;;;;;;23.42;6.85;;;;;;;13.92;68.39;101128.88;4965727;28;123603;-77
2023/11/15 06:42:35;;;;;;;21.00;6.57;;;;;;;13.92;68.56;101123.56;4970692;28;109663;-77
2023/11/15 06:45:04;;;;;;;22.50;6.22;;;;;;;13.91;68.55;101127.19;4969607;28;108959;-77
2023/11/15 06:47:31;;;;;;;14.65;6.47;;;;;;;13.90;68.48;101130.78;4952201;28;125404;-76
2023/11/15 06:49:59;;;;;;;18.40;6.78;;;;;;;13.89;68.37;101137.06;4948346;28;124796;-77
2023/11/15 06:52:29;;;;;;;17.50;5.82;;;;;;;13.85;68.29;101143.50;4966766;28;109496;-77
2023/11/15 06:54:56;;;;;;;17.45;5.30;;;;;;;13.83;68.33;101136.44;4945608;28;108746;-77
2023/11/15 06:57:24;;;;;;;17.88;5.95;;;;;;;13.82;68.31;101140.06;4959668;28;125125;-76
2023/11/15 06:59:51;;;;;;;14.15;5.93;;;;;;;13.82;68.60;101148.06;4946383;28;124979;-76
2023/11/15 07:02:18;;;;;;;16.63;5.93;;;;;;;13.83;68.58;101152.41;4946711;28;108637;-77
2023/11/15 07:04:45;;;;;;;19.17;5.90;;;;;;;13.82;68.46;101150.72;4961291;28;110458;-77
2023/11/15 07:07:12;;;;;;;17.75;6.35;;;;;;;13.82;68.44;101149.81;4959327;28;122194;-77
2023/11/15 07:09:40;;;;;;;15.18;6.88;;;;;;;13.81;68.49;101158.78;4967141;28;124204;-76
2023/11/15 07:12:08;;;;;;;19.27;6.80;;;;;;;13.81;68.43;101170.28;4971899;28;108605;-77
2023/11/15 07:14:36;;;;;;;21.52;5.97;;;;;;;13.81;68.50;101167.63;4972290;28;108090;-76
2023/11/15 07:17:03;;;;;;;16.10;4.95;;;;;;;13.81;68.41;101172.94;4969765;28;125603;-76
2023/11/15 07:19:33;;;;;;;12.35;5.57;;;;;;;13.81;68.58;101175.59;4958323;28;123787;-76
2023/11/15 07:22:00;;;;;;;14.52;5.45;;;;;;;13.81;68.48;101180.94;4957470;28;111279;-76
2023/11/15 07:24:28;;;;;;;16.95;6.07;;;;;;;13.80;68.69;101184.50;4972175;28;108986;-76
2023/11/15 07:26:56;;;;;;;18.70;5.50;;;;;;;13.79;68.46;101193.47;4967378;28;123938;-76
2023/11/15 07:29:26;;;;;;;19.88;5.30;;;;;;;13.79;68.59;101182.81;4953763;28;124451;-79
2023/11/15 07:31:53;;;;;;;18.38;5.85;;;;;;;13.79;68.73;101185.47;4952389;28;109511;-76
2023/11/15 07:34:24;;;;;;;13.93;5.60;;;;;;;13.79;68.52;101187.28;4969856;28;110263;-76
2023/11/15 07:36:55;;;;;;;17.55;5.45;;;;;;;13.78;68.43;101185.56;4968402;28;124377;-76
2023/11/15 07:39:24;;;;;;;17.13;5.80;;;;;;;13.78;68.43;101193.53;4954271;28;123770;-77
2023/11/15 07:41:52;;;;;;;16.33;6.10;;;;;;;13.76;68.49;101193.63;4950615;28;114182;-76
2023/11/15 07:44:19;;;;;;;15.95;6.18;;;;;;;13.78;68.40;101202.38;4943992;28;113804;-77
2023/11/15 07:46:49;;;;;;;18.58;6.47;;;;;;;13.76;68.29;101204.25;4967395;28;123646;-77
2023/11/15 07:49:23;;;;;;;20.55;6.05;;;;;;;13.77;68.38;101206.00;4961005;28;125786;-77
2023/11/15 07:51:51;;;;;;;25.48;6.57;;;;;;;13.77;68.39;101211.31;4937296;28;114926;-76
2023/11/15 07:54:19;;;;;;;17.85;5.55;;;;;;;13.75;68.20;101213.22;4944692;28;114027;-77
2023/11/15 07:56:46;;;;;;;21.98;5.95;;;;;;;13.77;68.45;101216.66;4949455;28;123946;-76
2023/11/15 07:59:14;;;;;;;17.02;6.13;;;;;;;13.79;68.35;101230.72;4959901;28;124283;-76
2023/11/15 08:01:42;;;;;;;17.00;6.05;;;;;;;13.79;68.50;101230.72;4959460;28;113778;-76
2023/11/15 08:04:14;;;;;;;18.90;6.10;;;;;;;13.80;68.36;101227.13;4954621;28;113586;-76
2023/11/15 08:06:43;;;;;;;15.98;6.40;;;;;;;13.83;68.45;101242.09;4961364;28;124637;-76
2023/11/15 08:09:23;;;;;;;13.52;5.65;;;;;;;13.85;68.42;101244.69;4966895;28;124454;-76
2023/11/15 08:11:53;;;;;;;14.18;5.00;;;;;;;13.85;68.51;101244.69;4930309;28;115313;-77
2023/11/15 08:14:21;;;;;;;11.57;4.25;;;;;;;13.82;68.39;101246.56;4950279;28;114107;-76
2023/11/15 08:16:49;;;;;;;10.88;4.03;;;;;;;13.83;68.46;101253.59;4966467;28;124029;-77
2023/11/15 08:19:18;;;;;;;8.35;3.20;;;;;;;13.81;68.21;101250.16;4956826;28;123918;-76
2023/11/15 08:21:47;;;;;;;10.10;3.30;;;;;;;13.81;68.06;101250.16;4943439;28;114180;-76
2023/11/15 08:24:20;;;;;;;9.15;3.80;;;;;;;13.80;68.06;101253.75;4963386;28;113596;-76
2023/11/15 08:26:52;;;;;;;10.90;4.23;;;;;;;13.80;67.91;101253.75;4965989;28;124519;-76
2023/11/15 08:29:21;;;;;;;12.00;5.20;;;;;;;13.80;67.88;101264.38;4950147;28;124903;-76
2023/11/15 08:31:49;;;;;;;14.93;5.90;;;;;;;13.79;67.91;101256.50;4943141;28;114955;-76
2023/11/15 08:34:17;;;;;;;18.20;6.50;;;;;;;13.78;68.13;101255.63;4947253;28;114475;-77
2023/11/15 08:36:50;;;;;;;17.38;6.70;;;;;;;13.79;68.13;101262.69;4963774;28;123742;-76
2023/11/15 08:39:18;;;;;;;16.23;7.18;;;;;;;13.80;68.06;101268.84;4959924;28;125062;-77
2023/11/15 08:41:47;;;;;;;17.95;6.70;;;;;;;13.81;67.97;101266.13;4958035;28;115117;-76
2023/11/15 08:44:17;;;;;;;16.23;6.68;;;;;;;13.81;68.19;101266.13;4967473;28;115452;-76
2023/11/15 08:46:45;;;;;;;17.15;6.78;;;;;;;13.86;68.03;101283.66;4968251;28;124054;-77
2023/11/15 08:49:15;;;;;;;20.45;6.80;;;;;;;13.86;68.01;101278.31;4962184;28;123704;-77
2023/11/15 08:51:47;;;;;;;14.95;6.07;;;;;;;13.87;68.10;101277.41;4921924;28;114458;-76
2023/11/15 08:54:15;;;;;;;17.60;5.25;;;;;;;13.90;68.11;101277.22;4956492;28;115593;-76
2023/11/15 08:56:45;;;;;;;14.48;5.10;;;;;;;13.90;68.21;101279.88;4966269;28;123907;-77
2023/11/15 08:59:15;;;;;;;14.10;5.50;;;;;;;13.94;68.20;101292.13;4960698;28;123290;-75
2023/11/15 09:01:44;;;;;;;19.60;5.20;;;;;;;13.96;68.05;101287.56;4966137;28;114384;-77
2023/11/15 09:04:12;;;;;;;15.48;5.43;;;;;;;14.02;68.19;101289.91;4959065;28;114213;-77
2023/11/15 09:06:46;;;;;;;15.80;5.15;;;;;;;14.08;68.32;101294.06;4946011;28;124911;-77
2023/11/15 09:09:15;;;;;;;11.98;4.95;;;;;;;14.12;68.05;101285.81;4963224;28;124164;-77
2023/11/15 09:11:43;;;;;;;15.10;4.65;;;;;;;14.15;68.26;101291.00;4947707;28;113627;-77
2023/11/15 09:14:12;;;;;;;11.88;4.82;;;;;;;14.20;68.19;101294.28;4964996;28;114343;-77
2023/11/15 09:16:41;;;;;;;10.35;4.50;;;;;;;14.23;68.18;101297.72;4946301;28;123821;-77
2023/11/15 09:19:15;;;;;;;14.13;4.43;;;;;;;14.25;68.20;101291.34;4951160;28;122630;-77
2023/11/15 09:21:44;;;;;;;17.13;4.50;;;;;;;14.28;68.12;101295.66;4964994;28;114221;-77
2023/11/15 09:24:21;;;;;;;12.65;4.15;;;;;;;14.29;67.77;101286.72;4963985;28;113349;-77
2023/11/15 09:26:51;;;;;;;11.02;4.65;;;;;;;14.32;67.79;101297.22;4951939;28;124448;-76
2023/11/15 09:29:19;;;;;;;14.50;3.95;;;;;;;14.32;67.72;101297.22;4931568;28;123345;-76
2023/11/15 09:31:47;;;;;;;11.20;3.95;;;;;;;14.34;67.74;101306.00;4969643;28;115401;-76
2023/11/15 09:34:14;;;;;;;12.32;4.88;;;;;;;14.35;67.55;101297.03;4965044;28;114608;-76
2023/11/15 09:36:42;;;;;;;13.95;5.15;;;;;;;14.36;67.59;101314.78;4962540;28;123603;-77
2023/11/15 09:39:10;;;;;;;15.57;4.40;;;;;;;14.36;67.69;101317.44;4966048;28;123425;-76
2023/11/15 09:41:37;;;;;;;17.27;5.45;;;;;;;14.39;67.61;101319.91;4963408;28;113810;-76
2023/11/15 09:44:09;;;;;;;15.90;5.45;;;;;;;14.42;67.48;101330.44;4969792;28;114206;-76
2023/11/15 09:46:37;;;;;;;13.82;4.82;;;;;;;14.48;67.67;101323.91;4965275;28;126149;-76
2023/11/15 09:49:05;;;;;;;15.35;5.40;;;;;;;14.52;67.82;101320.13;4964304;28;124340;-77
2023/11/15 09:51:37;;;;;;;15.90;5.43;;;;;;;14.58;67.68;101320.69;4947365;28;115826;-76
2023/11/15 09:54:06;;;;;;;19.58;5.10;;;;;;;14.63;67.50;101316.91;4962113;28;114261;-76
2023/11/15 09:56:49;;;;;;;14.07;5.00;;;;;;;14.70;67.64;101328.97;4944064;28;123832;-76
2023/11/15 09:59:18;;;;;;;13.90;5.32;;;;;;;14.74;67.65;101330.53;4964951;28;123241;-76
2023/11/15 10:01:50;;;;;;;13.63;4.03;;;;;;;14.77;67.40;101330.38;4968266;28;114215;-76
2023/11/15 10:04:25;;;;;;;12.57;4.30;;;;;;;14.82;67.52;101325.63;4961194;28;113364;-76
2023/11/15 10:06:55;;;;;;;16.30;4.65;;;;;;;14.87;67.42;101326.25;4957917;28;123888;-77
2023/11/15 10:09:38;;;;;;;9.80;4.10;;;;;;;14.92;67.40;101339.34;4946990;28;125011;-77
2023/11/15 10:12:06;;;;;;;12.90;3.75;;;;;;;14.94;67.37;101332.97;4967646;28;114799;-76
2023/11/15 10:14:35;;;;;;;10.50;3.75;;;;;;;14.96;67.37;101331.06;4969549;28;114416;-76
2023/11/15 10:17:06;;;;;;;12.63;4.18;;;;;;;14.97;67.15;101346.13;4965493;28;124431;-76
2023/11/15 10:19:34;;;;;;;11.05;4.32;;;;;;;14.98;66.84;101337.16;4929545;28;125281;-77
2023/11/15 10:22:04;;;;;;;13.23;4.13;;;;;;;14.99;67.09;101336.25;4961536;28;115569;-76
2023/11/15 10:24:34;;;;;;;16.35;4.10;;;;;;;14.99;66.76;101333.56;4964573;28;115453;-76
2023/11/15 10:27:08;;;;;;;13.82;4.03;;;;;;;15.01;66.61;101332.59;4946685;28;123785;-76
2023/11/15 10:29:37;;;;;;;10.45;3.95;;;;;;;15.02;66.66;101334.34;4969584;28;124671;-76
2023/11/15 10:32:05;;;;;;;14.52;4.38;;;;;;;15.04;66.56;101333.31;4921561;28;116133;-76
2023/11/15 10:34:34;;;;;;;18.23;4.07;;;;;;;15.07;66.57;101326.91;4935286;28;113635;-77
2023/11/15 10:37:05;;;;;;;16.38;3.60;;;;;;;15.10;66.68;101329.44;4943644;28;124492;-76
2023/11/15 10:39:40;;;;;;;17.77;3.80;;;;;;;15.14;66.29;101333.63;4956893;28;124768;-76
2023/11/15 10:42:15;;;;;;;;;;;;;;;15.17;66.66;101334.31;4954758;28;113537;-76
2023/11/15 10:44:47;;;;;;;14.77;3.05;;;;;;;15.24;66.70;101329.53;4948614;28;114037;-76
2023/11/15 10:47:23;;;;;;;16.67;3.63;;;;;;;15.28;66.37;101340.88;4944889;28;123216;-76
2023/11/15 10:50:03;;;;;;;11.50;2.95;;;;;;;15.31;66.14;101346.91;4942392;28;123697;-77
2023/11/15 10:52:32;;;;;;;17.65;3.65;;;;;;;15.37;66.33;101335.88;4959726;28;114348;-76
2023/11/15 10:55:00;;;;;;;11.15;3.60;;;;;;;15.44;66.43;101332.84;4950189;28;114323;-77
2023/11/15 10:57:31;;;;;;;9.43;3.08;;;;;;;15.50;66.25;101335.16;4963121;28;124507;-76
2023/11/15 11:00:05;;;;;;;13.35;3.33;;;;;;;15.57;66.15;101332.03;4962415;28;124676;-76
2023/11/15 11:02:38;;;;;;;12.27;3.10;;;;;;;15.65;66.14;101339.63;4931858;28;114067;-77
2023/11/15 11:05:07;;;;;;;11.82;3.22;;;;;;;15.70;66.02;101331.34;4948664;28;114196;-76
2023/11/15 11:08:18;;;;;;;14.90;3.15;;;;;;;15.73;65.92;101329.38;4956607;28;123630;-76
2023/11/15 11:10:53;;;;;;;13.20;2.72;;;;;;;15.81;65.58;101333.41;4941720;28;124114;-76
2023/11/15 11:13:24;;;;;;;12.05;3.03;;;;;;;15.83;65.39;101331.50;4930482;28;115644;-77
2023/11/15 11:15:51;;;;;;;18.45;3.35;;;;;;;15.86;65.33;101333.97;4967579;28;114850;-76